Accueil
METAR-TAF:

METAR-TAF

Aéroports :

Meiringen, Suisse

latitude: 46-44-25N, longitude: 8-06-36E, altitude: 577 m

Observation

Le bulletin a été fait il y a 37 minutes, à 23:20 UTC
Vent 11 kt de nord-ouest, variant entre ouest et nord
Température 1°C
Humidité 80%
Pression 1012 hPa
Visibilité: 3200 m
Quelques nuages à une hauteur de 1900 ft
Ciel couvert à une hauteur de 2200 ft
neige faible

METAR: LSMM 262320Z AUTO 31011KT 260V010 3200NDV -SN FEW019 OVC022 01/M02 Q1012 RMK

Heure: 00:57 (23:57 UTC)


TAF: absent

Observations et prévisions météorologiques de plus de 4000 aéroports (messages METAR et TAF).

Les stations disponibles sont représentées par des disques jaunes et rouges sur la carte.

Passer la souris dessus pour voir le nom de la station.

Cliquer dessus pour voir les observations et prévisions météorologiques.

Pour changer de carte: cliquez sur les boutons verts avec une croix noire pour zoomer, sur le bouton vert avec un tiret pour effectuer un zoom arrière, ou sur les flèches vertes pour les cartes adjacentes.


METAR-TAF: